Time;durP1;ratioP1;P1;durP2;ratioP2;P2;SDS_P1;SDS_P2;PMS_P1;PMS_P2;Temp;Humidity;BMP_temperature;BMP_pressure;BME280_temperature;BME280_humidity;BME280_pressure;Samples;Min_cycle;Max_cycle;Signal;HPM_P1;HPM_P2
2022/04/24 00:01:55;;;;;;;;;8.00;7.50;;;;;20.00;43.06;100470.75;5097676;28;8784;-70
2022/04/24 00:04:20;;;;;;;;;7.25;7.25;;;;;19.99;42.98;100474.31;5090511;28;8776;-71
2022/04/24 00:06:48;;;;;;;;;6.00;6.00;;;;;19.97;42.96;100471.72;5089424;28;8784;-70
2022/04/24 00:09:14;;;;;;;;;7.00;7.00;;;;;19.99;42.98;100474.31;5090710;28;8819;-70
2022/04/24 00:11:40;;;;;;;;;7.00;7.00;;;;;19.98;42.91;100470.81;5089476;28;9899;-69
2022/04/24 00:14:09;;;;;;;;;7.25;7.25;;;;;19.97;43.03;100462.88;5105194;28;9964;-71
2022/04/24 00:16:35;;;;;;;;;6.25;6.25;;;;;19.96;43.13;100474.38;5110965;28;9046;-71
2022/04/24 00:19:00;;;;;;;;;7.00;7.00;;;;;19.95;43.02;100465.56;5109475;28;10084;-71
2022/04/24 00:21:26;;;;;;;;;6.00;6.00;;;;;19.95;42.89;100469.97;5110625;28;8839;-71
2022/04/24 00:23:51;;;;;;;;;6.00;6.00;;;;;19.96;42.65;100466.44;5110402;28;8774;-71
2022/04/24 00:26:16;;;;;;;;;6.50;6.00;;;;;19.95;42.72;100469.97;5109677;28;8794;-71
2022/04/24 00:28:41;;;;;;;;;6.00;6.00;;;;;19.94;42.82;100471.78;5110623;28;8797;-71
2022/04/24 00:31:07;;;;;;;;;5.25;5.00;;;;;19.94;42.95;100466.50;5110255;28;8813;-70
2022/04/24 00:33:32;;;;;;;;;7.50;6.50;;;;;19.92;42.59;100459.47;5109882;28;8905;-70
2022/04/24 00:35:57;;;;;;;;;9.25;7.25;;;;;19.93;42.55;100466.50;5110105;28;8892;-70
2022/04/24 00:38:23;;;;;;;;;9.25;8.75;;;;;19.92;43.07;100462.13;5110356;28;8817;-71
2022/04/24 00:40:48;;;;;;;;;6.75;6.50;;;;;19.91;43.02;100461.22;5109314;28;8774;-71
2022/04/24 00:43:14;;;;;;;;;6.25;6.25;;;;;19.91;42.93;100463.88;5110384;28;8781;-71
2022/04/24 00:45:39;;;;;;;;;8.75;6.75;;;;;19.91;42.75;100461.22;5110510;28;8762;-71
2022/04/24 00:48:05;;;;;;;;;6.00;5.00;;;;;19.92;42.74;100468.28;5109200;28;9859;-71
2022/04/24 00:50:30;;;;;;;;;7.25;6.50;;;;;19.90;42.95;100459.50;5110715;28;8962;-71
2022/04/24 00:52:56;;;;;;;;;6.00;6.00;;;;;19.91;42.56;100463.03;5109840;28;9508;-71
2022/04/24 00:55:23;;;;;;;;;6.00;6.00;;;;;19.90;42.92;100467.47;5109774;28;8769;-71
2022/04/24 00:57:49;;;;;;;;;6.00;6.00;;;;;19.88;42.65;100455.13;5110155;28;8794;-71
2022/04/24 01:00:15;;;;;;;;;8.00;7.00;;;;;19.89;42.71;100459.53;5110296;28;10516;-71
2022/04/24 01:02:40;;;;;;;;;7.75;6.25;;;;;19.89;43.02;100456.88;5090711;28;9942;-71
2022/04/24 01:05:08;;;;;;;;;6.50;6.50;;;;;19.86;42.73;100455.19;5093889;28;8779;-71
2022/04/24 01:07:33;;;;;;;;;6.00;6.00;;;;;19.86;42.80;100454.31;5094349;28;8780;-71
2022/04/24 01:10:00;;;;;;;;;7.00;7.00;;;;;19.87;42.92;100456.91;5093233;28;9854;-71
2022/04/24 01:12:25;;;;;;;;;7.00;6.50;;;;;19.86;42.50;100457.84;5094774;28;8895;-70
2022/04/24 01:14:51;;;;;;;;;6.00;6.00;;;;;19.84;42.59;100451.69;5113559;28;9770;-71
2022/04/24 01:17:16;;;;;;;;;6.25;6.25;;;;;19.85;42.72;100458.75;5113094;28;8781;-71
2022/04/24 01:19:41;;;;;;;;;9.50;7.00;;;;;19.85;42.75;100455.22;5113721;28;8781;-70
2022/04/24 01:22:06;;;;;;;;;6.25;6.25;;;;;19.84;42.95;100454.34;5113104;28;8826;-71
2022/04/24 01:24:32;;;;;;;;;6.00;6.00;;;;;19.84;42.72;100448.16;5113845;28;8797;-70
2022/04/24 01:26:57;;;;;;;;;7.00;7.00;;;;;19.85;42.79;100456.09;5113848;28;8762;-71
2022/04/24 01:29:23;;;;;;;;;6.00;6.00;;;;;19.85;42.59;100464.03;5113324;28;9571;-70
2022/04/24 01:31:48;;;;;;;;;6.50;6.50;;;;;19.84;42.63;100450.81;5113487;28;8836;-72
2022/04/24 01:34:14;;;;;;;;;6.25;5.00;;;;;19.82;42.83;100452.63;5113637;28;8800;-71
2022/04/24 01:36:40;;;;;;;;;6.00;6.00;;;;;19.80;42.72;100455.31;5113150;28;8874;-72
2022/04/24 01:39:05;;;;;;;;;5.50;5.50;;;;;19.83;42.38;100457.91;5113537;28;10556;-71
2022/04/24 01:41:31;;;;;;;;;7.00;7.00;;;;;19.84;42.58;100461.41;5113903;28;8770;-71
2022/04/24 01:43:57;;;;;;;;;7.00;7.00;;;;;19.83;42.52;100460.56;5112663;28;8886;-71
2022/04/24 01:46:22;;;;;;;;;10.75;7.25;;;;;19.81;42.68;100453.53;5113440;28;9829;-70
2022/04/24 01:48:48;;;;;;;;;6.75;6.75;;;;;19.78;42.70;100452.72;5113064;28;9847;-70
2022/04/24 01:51:14;;;;;;;;;5.75;5.75;;;;;19.80;42.30;100455.31;5112832;28;9655;-71
2022/04/24 01:53:41;;;;;;;;;8.75;6.50;;;;;19.79;42.48;100458.88;5113608;28;8798;-69
2022/04/24 01:56:07;;;;;;;;;6.00;5.75;;;;;19.80;42.61;100460.59;5113100;28;9775;-71
2022/04/24 01:58:36;;;;;;;;;6.25;6.00;;;;;19.81;42.41;100461.47;5112515;28;9771;-71
2022/04/24 02:01:03;;;;;;;;;5.00;5.00;;;;;19.78;42.45;100459.78;5107605;28;9696;-71
2022/04/24 02:03:29;;;;;;;;;5.00;5.00;;;;;19.76;42.91;100467.75;5093009;28;9767;-71
2022/04/24 02:05:56;;;;;;;;;8.00;7.00;;;;;19.78;42.45;100465.09;5091877;28;9764;-71
2022/04/24 02:08:21;;;;;;;;;6.00;6.00;;;;;19.74;42.66;100452.81;5092894;28;9902;-71
2022/04/24 02:10:47;;;;;;;;;5.50;5.50;;;;;19.76;42.76;100469.53;5092672;28;9796;-71
2022/04/24 02:13:13;;;;;;;;;6.25;6.00;;;;;19.76;42.71;100466.88;5099115;28;8810;-71
2022/04/24 02:15:38;;;;;;;;;6.75;6.75;;;;;19.76;42.70;100469.53;5112127;28;8796;-71
2022/04/24 02:18:03;;;;;;;;;6.75;6.00;;;;;19.74;42.62;100463.41;5112387;28;8829;-70
2022/04/24 02:20:29;;;;;;;;;7.50;6.25;;;;;19.75;42.77;100467.81;5112371;28;8766;-71
2022/04/24 02:22:57;;;;;;;;;6.00;6.00;;;;;19.75;42.45;100478.41;5112683;28;8790;-71
2022/04/24 02:25:26;;;;;;;;;6.00;6.00;;;;;19.74;42.62;100468.69;5112392;28;8774;-71
2022/04/24 02:27:57;;;;;;;;;5.50;5.00;;;;;19.75;42.81;100471.31;5112547;28;9914;-71
2022/04/24 02:30:23;;;;;;;;;8.25;7.75;;;;;19.73;42.79;100474.91;5112916;28;9835;-70
2022/04/24 02:32:49;;;;;;;;;8.25;8.25;;;;;19.73;42.44;100475.78;5111477;28;9692;-71
2022/04/24 02:35:14;;;;;;;;;4.50;4.50;;;;;19.73;42.60;100469.59;5112658;28;9764;-71
2022/04/24 02:37:40;;;;;;;;;6.50;5.25;;;;;19.71;42.79;100468.78;5112750;28;8788;-71
2022/04/24 02:40:10;;;;;;;;;5.25;5.25;;;;;19.72;42.54;100468.72;5111593;28;8777;-70
2022/04/24 02:42:38;;;;;;;;;6.75;5.75;;;;;19.71;42.74;100472.31;5112588;28;9449;-71
2022/04/24 02:45:08;;;;;;;;;5.00;5.00;;;;;19.72;42.61;100473.19;5112076;28;9828;-70
2022/04/24 02:47:40;;;;;;;;;6.75;6.75;;;;;19.71;42.70;100474.94;5111813;28;9847;-71
2022/04/24 02:50:06;;;;;;;;;6.75;6.75;;;;;19.70;42.73;100470.53;5111875;28;9874;-70
2022/04/24 02:52:31;;;;;;;;;9.00;9.00;;;;;19.70;42.58;100469.66;5112008;28;9977;-71
2022/04/24 02:54:56;;;;;;;;;7.00;7.00;;;;;19.70;42.38;100472.31;5111453;28;8793;-71
2022/04/24 02:57:22;;;;;;;;;7.50;7.50;;;;;19.69;42.75;100476.75;5112142;28;8773;-70
2022/04/24 02:59:50;;;;;;;;;10.00;7.25;;;;;19.70;42.58;100474.97;5111899;28;8769;-72
2022/04/24 03:02:18;;;;;;;;;6.00;6.00;;;;;19.69;42.47;100476.75;5096117;28;8846;-71
2022/04/24 03:04:47;;;;;;;;;7.00;7.00;;;;;19.68;42.77;100469.69;5091501;28;10651;-71
2022/04/24 03:07:13;;;;;;;;;6.00;6.00;;;;;19.68;42.57;100475.00;5091831;28;9690;-71
2022/04/24 03:09:38;;;;;;;;;6.00;6.00;;;;;19.65;42.56;100472.41;5090980;28;9982;-70
2022/04/24 03:12:05;;;;;;;;;5.00;5.00;;;;;19.66;42.55;100474.16;5091196;28;8846;-71
2022/04/24 03:14:31;;;;;;;;;6.00;5.75;;;;;19.64;42.68;100473.34;5109002;28;8824;-71
2022/04/24 03:16:56;;;;;;;;;6.25;6.25;;;;;19.65;42.63;100471.53;5111477;28;10533;-71
2022/04/24 03:19:21;;;;;;;;;5.25;5.25;;;;;19.66;42.24;100468.88;5111794;28;8817;-71
2022/04/24 03:21:47;;;;;;;;;5.50;5.50;;;;;19.66;42.64;100466.22;5110851;28;9516;-71
2022/04/24 03:24:12;;;;;;;;;6.00;5.50;;;;;19.66;42.63;100462.69;5111898;28;8769;-70
2022/04/24 03:26:37;;;;;;;;;5.50;5.50;;;;;19.64;42.51;100467.16;5111964;28;8761;-70
2022/04/24 03:29:02;;;;;;;;;6.00;6.00;;;;;19.62;42.60;100467.19;5111732;28;9556;-71
2022/04/24 03:31:28;;;;;;;;;5.75;5.75;;;;;19.64;42.56;100469.81;5120636;28;8789;-70
2022/04/24 03:33:54;;;;;;;;;6.00;6.00;;;;;19.63;42.52;100465.41;5114413;28;8821;-71
2022/04/24 03:36:19;;;;;;;;;9.00;6.75;;;;;19.64;42.79;100470.69;5111308;28;9579;-71
2022/04/24 03:38:44;;;;;;;;;6.25;6.25;;;;;19.64;42.64;100464.53;5111311;28;9765;-72
2022/04/24 03:41:10;;;;;;;;;6.25;6.25;;;;;19.62;42.71;100464.53;5112101;28;8769;-69
2022/04/24 03:43:35;;;;;;;;;6.50;6.50;;;;;19.64;42.66;100467.16;5111976;28;8770;-70
2022/04/24 03:46:00;;;;;;;;;7.00;6.00;;;;;19.60;42.63;100465.47;5113356;28;8850;-72
2022/04/24 03:48:26;;;;;;;;;8.50;8.00;;;;;19.63;42.46;100461.00;5112333;28;8796;-71
2022/04/24 03:50:51;;;;;;;;;6.00;6.00;;;;;19.63;42.62;100462.75;5111577;28;8770;-72
2022/04/24 03:53:18;;;;;;;;;7.00;6.75;;;;;19.62;42.50;100456.59;5111377;28;8818;-71
2022/04/24 03:55:46;;;;;;;;;5.75;5.25;;;;;19.60;42.68;100453.13;5111129;28;8758;-70
2022/04/24 03:58:11;;;;;;;;;6.50;6.50;;;;;19.59;42.33;100464.59;5110468;28;9820;-71
2022/04/24 04:00:37;;;;;;;;;6.00;6.00;;;;;19.59;42.65;100459.31;5109228;28;9836;-71
2022/04/24 04:03:02;;;;;;;;;7.50;7.50;;;;;19.61;42.57;100465.44;5090559;28;8784;-71
2022/04/24 04:05:28;;;;;;;;;6.50;6.50;;;;;19.60;42.67;100462.84;5090197;28;8798;-72
2022/04/24 04:07:53;;;;;;;;;5.50;5.50;;;;;19.59;42.71;100458.44;5090600;28;8902;-71
2022/04/24 04:10:19;;;;;;;;;7.00;7.00;;;;;19.58;42.62;100457.56;5091096;28;8876;-72
2022/04/24 04:12:44;;;;;;;;;10.00;8.00;;;;;19.58;42.73;100464.63;5092981;28;8794;-71
2022/04/24 04:15:09;;;;;;;;;7.00;7.00;;;;;19.59;42.63;100461.09;5110674;28;8801;-72
2022/04/24 04:17:35;;;;;;;;;6.75;6.75;;;;;19.58;42.67;100470.81;5110583;28;8899;-71
2022/04/24 04:20:00;;;;;;;;;7.00;7.00;;;;;19.57;42.48;100462.91;5109432;28;8846;-71
2022/04/24 04:22:25;;;;;;;;;6.50;6.50;;;;;19.58;42.40;100467.28;5110542;28;8838;-70
2022/04/24 04:24:52;;;;;;;;;6.00;6.00;;;;;19.58;42.34;100470.81;5109746;28;8774;-70
2022/04/24 04:27:18;;;;;;;;;6.00;6.00;;;;;19.56;42.49;100466.44;5110722;28;8778;-71
2022/04/24 04:29:43;;;;;;;;;4.50;4.50;;;;;19.58;42.34;100477.88;5110486;28;9956;-71
2022/04/24 04:32:08;;;;;;;;;5.25;5.25;;;;;19.58;42.55;100477.88;5109665;28;8894;-71
2022/04/24 04:34:34;;;;;;;;;8.00;8.00;;;;;19.55;42.53;100473.53;5110721;28;8781;-72
2022/04/24 04:37:05;;;;;;;;;6.75;5.25;;;;;19.55;42.56;100472.63;5110155;28;8896;-71
2022/04/24 04:39:30;;;;;;;;;6.00;6.00;;;;;19.53;42.67;100480.59;5116003;28;8781;-71
2022/04/24 04:41:56;;;;;;;;;6.75;6.75;;;;;19.55;42.61;100481.47;5116902;28;9776;-71
2022/04/24 04:44:21;;;;;;;;;7.75;6.25;;;;;19.52;42.61;100486.84;5117600;28;8781;-71
2022/04/24 04:46:46;;;;;;;;;5.25;5.25;;;;;19.53;42.43;100491.19;5116728;28;8790;-71
2022/04/24 04:49:12;;;;;;;;;7.25;6.25;;;;;19.55;42.26;100483.25;5117756;28;8777;-71
2022/04/24 04:51:37;;;;;;;;;7.00;6.00;;;;;19.53;42.48;100490.34;5117289;28;8789;-72
2022/04/24 04:54:02;;;;;;;;;7.75;5.00;;;;;19.53;42.41;100493.84;5116547;28;8801;-71
2022/04/24 04:56:27;;;;;;;;;4.50;4.50;;;;;19.53;42.43;100500.94;5117649;28;8766;-71
2022/04/24 04:58:53;;;;;;;;;4.50;4.50;;;;;19.51;42.73;100500.09;5117348;28;8793;-71
2022/04/24 05:01:18;;;;;;;;;7.00;7.00;;;;;19.50;42.55;100493.91;5108611;28;8803;-71
2022/04/24 05:03:43;;;;;;;;;7.00;7.00;;;;;19.52;42.49;100508.00;5096755;28;8891;-72
2022/04/24 05:06:09;;;;;;;;;5.50;5.50;;;;;19.52;42.91;100501.84;5096867;28;8788;-72
2022/04/24 05:08:34;;;;;;;;;6.75;6.75;;;;;19.52;42.61;100505.38;5095955;28;8832;-72
2022/04/24 05:11:00;;;;;;;;;6.00;6.00;;;;;19.50;42.69;100512.44;5096428;28;8783;-72
2022/04/24 05:13:25;;;;;;;;;6.00;6.00;;;;;19.48;42.52;100508.97;5106292;28;8833;-72
2022/04/24 05:15:51;;;;;;;;;7.25;7.25;;;;;19.50;42.60;100519.53;5116622;28;8746;-71
2022/04/24 05:18:16;;;;;;;;;4.75;4.75;;;;;19.49;42.79;100517.81;5117051;28;8809;-71
2022/04/24 05:20:43;;;;;;;;;6.00;6.00;;;;;19.48;42.72;100514.28;5117292;28;8765;-71
2022/04/24 05:23:09;;;;;;;;;6.00;5.75;;;;;19.48;42.46;100510.75;5116303;28;8777;-70
2022/04/24 05:25:35;;;;;;;;;9.00;7.50;;;;;19.48;42.52;100519.56;5117035;28;9717;-71
2022/04/24 05:28:03;;;;;;;;;4.75;4.75;;;;;19.47;42.60;100520.47;5115395;28;10503;-71
2022/04/24 05:30:28;;;;;;;;;6.75;6.75;;;;;19.47;42.54;100523.13;5116482;28;9864;-71
2022/04/24 05:32:57;;;;;;;;;5.75;5.75;;;;;19.49;42.54;100529.25;5116824;28;10020;-72
2022/04/24 05:35:23;;;;;;;;;7.00;5.75;;;;;19.48;42.55;100521.34;5116373;28;8780;-71
2022/04/24 05:37:48;;;;;;;;;8.00;5.75;;;;;19.46;42.64;100529.31;5116380;28;9943;-71
2022/04/24 05:40:15;;;;;;;;;5.75;5.75;;;;;19.46;42.53;100525.81;5117342;28;8785;-71
2022/04/24 05:42:49;;;;;;;;;6.75;6.00;;;;;19.48;42.32;100534.56;5116210;28;8782;-71
2022/04/24 05:45:18;;;;;;;;;5.50;4.75;;;;;19.47;42.72;100539.00;5117116;28;9718;-71
2022/04/24 05:47:44;;;;;;;;;8.00;5.75;;;;;19.46;42.81;100539.88;5116583;28;9675;-70
2022/04/24 05:50:09;;;;;;;;;7.25;7.25;;;;;19.45;42.86;100535.53;5112687;28;9775;-71
2022/04/24 05:52:41;;;;;;;;;7.00;7.00;;;;;19.47;42.64;100536.34;5113171;28;9818;-71
2022/04/24 05:55:07;;;;;;;;;6.00;6.00;;;;;19.46;42.53;100541.69;5113486;28;8785;-72
2022/04/24 05:57:34;;;;;;;;;6.75;6.75;;;;;19.47;42.65;100552.25;5112854;28;9822;-72
2022/04/24 05:59:59;;;;;;;;;3.75;3.75;;;;;19.48;42.58;100547.81;5113205;28;9766;-71
2022/04/24 06:02:25;;;;;;;;;6.00;6.00;;;;;19.47;42.72;100544.28;5096253;28;9953;-72
2022/04/24 06:04:50;;;;;;;;;6.00;6.00;;;;;19.47;42.52;100544.28;5092262;28;8810;-72
2022/04/24 06:07:15;;;;;;;;;8.50;8.50;;;;;19.47;42.38;100546.06;5092704;28;8776;-72
2022/04/24 06:09:41;;;;;;;;;6.25;6.25;;;;;19.48;42.66;100543.41;5093043;28;8926;-72
2022/04/24 06:12:07;;;;;;;;;6.00;6.00;;;;;19.49;42.44;100550.44;5092023;28;8806;-71
2022/04/24 06:14:35;;;;;;;;;7.25;6.25;;;;;19.47;42.34;100549.59;5111470;28;10315;-71
2022/04/24 06:17:01;;;;;;;;;4.00;4.00;;;;;19.49;42.56;100550.44;5114484;28;9803;-70
2022/04/24 06:19:27;;;;;;;;;6.00;6.00;;;;;19.49;42.67;100553.09;5113111;28;9879;-70
2022/04/24 06:21:52;;;;;;;;;5.00;5.00;;;;;19.49;42.39;100550.44;5117886;28;9544;-73
2022/04/24 06:24:17;;;;;;;;;6.25;6.00;;;;;19.47;42.50;100552.25;5115656;28;9846;-71
2022/04/24 06:26:44;;;;;;;;;4.75;4.75;;;;;19.50;42.40;100554.81;5113129;28;8811;-71
2022/04/24 06:29:10;;;;;;;;;5.00;5.00;;;;;19.52;42.44;100554.81;5113353;28;8797;-71
2022/04/24 06:31:36;;;;;;;;;4.50;4.50;;;;;19.51;42.38;100561.00;5113045;28;9843;-71
2022/04/24 06:34:04;;;;;;;;;5.00;5.00;;;;;19.49;42.58;100554.88;5116193;28;9826;-70
2022/04/24 06:36:29;;;;;;;;;5.25;5.25;;;;;19.53;42.20;100562.69;5114724;28;8766;-71
2022/04/24 06:38:57;;;;;;;;;5.50;5.50;;;;;19.53;42.47;100565.34;5113090;28;9748;-72
2022/04/24 06:41:23;;;;;;;;;4.25;4.25;;;;;19.52;42.52;100565.41;5113215;28;8812;-71
2022/04/24 06:43:48;;;;;;;;;4.00;4.00;;;;;19.55;42.12;100567.97;5112820;28;9613;-71
2022/04/24 06:46:18;;;;;;;;;5.50;4.75;;;;;19.52;42.52;100565.41;5112491;28;8797;-72
2022/04/24 06:48:44;;;;;;;;;6.75;6.25;;;;;19.52;42.18;100568.91;5112541;28;8793;-72
2022/04/24 06:51:09;;;;;;;;;5.50;5.00;;;;;19.56;42.23;100573.25;5112698;28;10191;-71
2022/04/24 06:53:35;;;;;;;;;4.00;4.00;;;;;19.56;42.21;100562.66;5112238;28;8927;-71
2022/04/24 06:56:01;;;;;;;;;5.25;5.25;;;;;19.57;42.26;100572.31;5112495;28;8780;-71
2022/04/24 06:58:26;;;;;;;;;4.25;4.25;;;;;19.58;42.21;100571.44;5112187;28;10039;-73
2022/04/24 07:00:53;;;;;;;;;7.00;6.75;;;;;19.57;42.07;100568.84;5106790;28;8942;-71
2022/04/24 07:03:21;;;;;;;;;5.00;5.00;;;;;19.58;42.22;100574.09;5091774;28;8779;-72
2022/04/24 07:05:47;;;;;;;;;4.00;4.00;;;;;19.58;42.05;100574.09;5091440;28;9855;-72
2022/04/24 07:08:12;;;;;;;;;4.00;4.00;;;;;19.57;42.05;100576.78;5090692;28;10411;-71
2022/04/24 07:10:37;;;;;;;;;5.00;5.00;;;;;19.60;42.24;100576.72;5091587;28;8804;-71
2022/04/24 07:13:04;;;;;;;;;4.50;4.25;;;;;19.60;42.21;100577.59;5097135;28;8886;-71
2022/04/24 07:15:31;;;;;;;;;7.00;7.00;;;;;19.62;42.09;100577.53;5110730;28;8757;-71
2022/04/24 07:17:57;;;;;;;;;5.00;5.00;;;;;19.62;42.15;100580.19;5111205;28;9872;-72
2022/04/24 07:20:22;;;;;;;;;5.00;5.00;;;;;19.64;42.20;100581.94;5111481;28;9792;-71
2022/04/24 07:22:49;;;;;;;;;4.50;3.75;;;;;19.61;42.33;100583.72;5110423;28;8773;-71
2022/04/24 07:25:23;;;;;;;;;4.75;4.75;;;;;19.61;42.20;100589.91;5111587;28;8769;-70
2022/04/24 07:27:49;;;;;;;;;5.00;5.00;;;;;19.62;42.09;100591.66;5110522;28;9813;-71
2022/04/24 07:30:16;;;;;;;;;5.75;5.75;;;;;19.64;42.01;100587.22;5111629;28;9680;-71
2022/04/24 07:32:51;;;;;;;;;5.50;5.50;;;;;19.66;41.97;100592.47;5111102;28;10442;-71
2022/04/24 07:35:25;;;;;;;;;6.00;6.00;;;;;19.64;41.98;100587.22;5110807;28;9682;-70
2022/04/24 07:37:51;;;;;;;;;4.75;4.00;;;;;19.65;42.07;100577.47;5110870;28;9898;-71
2022/04/24 07:40:19;;;;;;;;;5.25;5.25;;;;;19.66;41.98;100588.06;5111407;28;9676;-72
2022/04/24 07:42:53;;;;;;;;;5.00;5.00;;;;;19.67;42.14;100586.28;5110000;28;8796;-71
2022/04/24 07:45:26;;;;;;;;;4.75;4.00;;;;;19.67;42.23;100592.47;5111342;28;9833;-71
2022/04/24 07:47:53;;;;;;;;;5.00;5.00;;;;;19.68;42.12;100590.69;5111228;28;9749;-72
2022/04/24 07:50:21;;;;;;;;;6.75;5.00;;;;;19.69;42.07;100595.06;5110590;28;9848;-71
2022/04/24 07:52:47;;;;;;;;;5.00;5.00;;;;;19.69;41.94;100595.94;5110621;28;9866;-71
2022/04/24 07:55:17;;;;;;;;;4.75;4.00;;;;;19.68;41.94;100583.59;5110958;28;9838;-71
2022/04/24 07:57:42;;;;;;;;;5.00;5.00;;;;;19.68;42.01;100583.59;5110174;28;9740;-71
2022/04/24 08:00:14;;;;;;;;;4.00;4.00;;;;;19.69;42.05;100592.41;5110919;28;9791;-72
2022/04/24 08:02:51;;;;;;;;;4.00;4.00;;;;;19.72;41.99;100595.03;5091771;28;8804;-71
2022/04/24 08:05:20;;;;;;;;;7.00;6.25;;;;;19.72;41.99;100597.66;5090354;28;9776;-72
2022/04/24 08:07:45;;;;;;;;;4.25;4.25;;;;;19.70;42.21;100602.09;5090327;28;9702;-71
2022/04/24 08:10:11;;;;;;;;;5.00;5.00;;;;;19.72;41.99;100601.16;5089526;28;9682;-71
2022/04/24 08:12:36;;;;;;;;;5.00;5.00;;;;;19.73;42.16;100596.75;5092069;28;8922;-71
2022/04/24 08:15:02;;;;;;;;;5.00;5.00;;;;;19.72;41.94;100597.66;5111263;28;8797;-71
2022/04/24 08:17:27;;;;;;;;;8.50;5.00;;;;;19.74;42.00;100603.78;5110487;28;8794;-71
2022/04/24 08:19:52;;;;;;;;;5.00;5.00;;;;;19.74;42.12;100604.69;5111143;28;9541;-71
2022/04/24 08:22:17;;;;;;;;;4.00;4.00;;;;;19.74;42.04;100602.03;5111178;28;8904;-71
2022/04/24 08:24:43;;;;;;;;;7.25;4.75;;;;;19.77;42.04;100609.91;5110257;28;8786;-71
2022/04/24 08:27:08;;;;;;;;;4.00;4.00;;;;;19.76;42.10;100612.56;5111267;28;8805;-71
2022/04/24 08:29:33;;;;;;;;;4.00;4.00;;;;;19.77;41.95;100609.03;5111229;28;8793;-71
2022/04/24 08:31:59;;;;;;;;;4.25;4.25;;;;;19.79;41.83;100612.53;5109736;28;8794;-71
2022/04/24 08:34:24;;;;;;;;;6.00;5.00;;;;;19.79;41.98;100615.19;5110292;28;8770;-72
2022/04/24 08:36:49;;;;;;;;;5.00;4.00;;;;;19.80;41.95;100619.56;5110152;28;8823;-70
2022/04/24 08:39:17;;;;;;;;;3.00;3.00;;;;;19.81;41.88;100617.78;5109829;28;8774;-71
2022/04/24 08:41:44;;;;;;;;;4.00;3.75;;;;;19.82;41.93;100620.41;5110893;28;8778;-71
2022/04/24 08:44:09;;;;;;;;;6.00;6.00;;;;;19.82;42.04;100620.41;5110310;28;9759;-71
2022/04/24 08:46:34;;;;;;;;;4.00;3.00;;;;;19.83;41.93;100627.47;5109905;28;9908;-71
2022/04/24 08:49:02;;;;;;;;;5.00;5.00;;;;;19.85;41.84;100632.72;5110515;28;8765;-71
2022/04/24 08:51:27;;;;;;;;;5.50;5.00;;;;;19.85;41.93;100624.78;5110588;28;8750;-71
2022/04/24 08:53:55;;;;;;;;;4.75;4.75;;;;;19.85;42.19;100623.00;5109424;28;9815;-70
2022/04/24 08:56:21;;;;;;;;;5.50;4.75;;;;;19.89;41.91;100632.63;5110519;28;8795;-71
2022/04/24 08:58:46;;;;;;;;;9.25;6.00;;;;;19.86;41.80;100638.00;5110043;28;9676;-70
2022/04/24 09:01:11;;;;;;;;;5.75;4.75;;;;;19.89;41.78;100645.00;5102820;28;8872;-72
2022/04/24 09:03:37;;;;;;;;;5.00;5.00;;;;;19.89;41.96;100637.94;5089965;28;8796;-71
2022/04/24 09:06:02;;;;;;;;;5.50;5.50;;;;;19.86;41.94;100634.47;5089941;28;8772;-71
2022/04/24 09:08:27;;;;;;;;;5.25;4.50;;;;;19.90;41.67;100628.22;5089683;28;8922;-71
2022/04/24 09:10:58;;;;;;;;;4.50;4.50;;;;;19.91;41.77;100638.75;5093548;28;8796;-71
2022/04/24 09:13:32;;;;;;;;;6.25;5.50;;;;;19.92;41.82;100629.03;5102703;28;8801;-71
2022/04/24 09:15:59;;;;;;;;;5.00;5.00;;;;;19.92;41.69;100627.28;5111007;28;9852;-72
2022/04/24 09:18:39;;;;;;;;;6.00;4.75;;;;;19.93;41.92;100636.09;5110967;28;9856;-70
2022/04/24 09:21:04;;;;;;;;;4.00;3.00;;;;;19.93;41.89;100633.44;5109066;28;9787;-71
2022/04/24 09:23:34;;;;;;;;;4.75;4.75;;;;;19.95;41.67;100632.50;5112772;28;9882;-71
2022/04/24 09:25:59;;;;;;;;;3.50;3.50;;;;;19.93;41.87;100628.16;5121195;28;8765;-71
2022/04/24 09:28:35;;;;;;;;;3.50;3.50;;;;;19.95;41.98;100632.50;5117293;28;9694;-72
2022/04/24 09:31:04;;;;;;;;;5.00;5.00;;;;;19.97;42.00;100638.66;5114384;28;8788;-71
2022/04/24 09:33:37;;;;;;;;;4.00;4.00;;;;;19.98;41.91;100643.06;5113728;28;9934;-71
2022/04/24 09:36:05;;;;;;;;;5.75;5.75;;;;;19.99;41.96;100642.13;5113000;28;9775;-71
2022/04/24 09:38:30;;;;;;;;;3.25;3.25;;;;;20.00;41.80;100641.25;5113874;28;9921;-71
2022/04/24 09:40:56;;;;;;;;;5.50;4.75;;;;;20.01;41.96;100640.34;5113540;28;9693;-71
2022/04/24 09:43:22;;;;;;;;;3.50;3.50;;;;;20.02;41.89;100642.06;5113005;28;8774;-71
2022/04/24 09:45:55;;;;;;;;;4.25;4.25;;;;;20.03;41.82;100651.78;5113217;28;9774;-70
2022/04/24 09:48:22;;;;;;;;;4.00;3.75;;;;;20.05;42.00;100649.09;5113105;28;8976;-71
2022/04/24 09:50:49;;;;;;;;;3.75;3.75;;;;;20.07;41.75;100650.81;5113293;28;10007;-71
2022/04/24 09:53:19;;;;;;;;;4.00;4.00;;;;;20.05;41.96;100649.09;5113570;28;9718;-71
2022/04/24 09:55:49;;;;;;;;;6.00;5.00;;;;;20.05;41.82;100650.00;5112518;28;9685;-72
2022/04/24 09:58:15;;;;;;;;;5.75;5.25;;;;;20.06;41.84;100648.19;5113347;28;9637;-72
2022/04/24 10:00:41;;;;;;;;;4.00;4.00;;;;;20.09;41.73;100648.16;5111049;28;9792;-71
2022/04/24 10:03:08;;;;;;;;;4.25;4.25;;;;;20.09;41.83;100656.09;5091848;28;9766;-70
2022/04/24 10:05:38;;;;;;;;;4.00;4.00;;;;;20.10;41.71;100650.75;5092706;28;9691;-70
2022/04/24 10:08:06;;;;;;;;;4.50;4.50;;;;;20.11;41.97;100673.72;5092778;28;10022;-71
2022/04/24 10:10:32;;;;;;;;;5.00;4.25;;;;;20.13;41.85;100663.94;5092153;28;9686;-71
2022/04/24 10:13:00;;;;;;;;;4.75;4.75;;;;;20.11;42.07;100655.16;5097385;28;9822;-70
2022/04/24 10:15:27;;;;;;;;;3.75;3.75;;;;;20.14;41.77;100656.84;5113027;28;8896;-70
2022/04/24 10:18:18;;;;;;;;;4.75;4.75;;;;;20.15;41.87;100661.25;5111967;28;10410;-72
2022/04/24 10:20:46;;;;;;;;;4.00;4.00;;;;;20.16;41.96;100661.25;5112959;28;9751;-71
2022/04/24 10:23:12;;;;;;;;;4.75;4.75;;;;;20.18;41.75;100661.19;5112961;28;9673;-72
2022/04/24 10:25:42;;;;;;;;;5.25;5.00;;;;;20.18;41.75;100663.84;5112145;28;9704;-71
2022/04/24 10:28:18;;;;;;;;;3.50;3.50;;;;;20.19;41.81;100658.53;5112527;28;11505;-71
2022/04/24 10:30:56;;;;;;;;;4.00;4.00;;;;;20.20;41.92;100662.06;5111996;28;9531;-71
2022/04/24 10:33:23;;;;;;;;;5.25;4.00;;;;;20.21;41.70;100666.41;5112581;28;10409;-70
2022/04/24 10:35:59;;;;;;;;;4.00;3.00;;;;;20.22;41.81;100666.41;5111478;28;10526;-71
2022/04/24 10:38:26;;;;;;;;;5.25;4.00;;;;;20.22;41.92;100663.75;5112093;28;9646;-70
2022/04/24 10:41:03;;;;;;;;;5.75;5.00;;;;;20.23;41.96;100664.63;5112319;28;10503;-71
2022/04/24 10:43:46;;;;;;;;;6.00;4.75;;;;;20.25;41.77;100655.72;5112558;28;9681;-71
2022/04/24 10:46:26;;;;;;;;;5.00;5.00;;;;;20.24;41.78;100656.63;5111752;28;9773;-71
2022/04/24 10:48:54;;;;;;;;;3.25;3.25;;;;;20.29;41.80;100659.22;5112142;28;9828;-71
2022/04/24 10:51:28;;;;;;;;;4.25;4.25;;;;;20.26;41.92;100657.47;5110709;28;9719;-71
2022/04/24 10:54:02;;;;;;;;;6.00;5.50;;;;;20.29;41.69;100661.88;5111176;28;9825;-71
2022/04/24 10:56:29;;;;;;;;;4.00;4.00;;;;;20.30;41.81;100666.28;5112219;28;9699;-70
2022/04/24 10:59:09;;;;;;;;;5.00;5.00;;;;;20.32;41.82;100660.97;5111278;28;9617;-71
2022/04/24 11:01:36;;;;;;;;;3.00;3.00;;;;;20.32;41.91;100658.31;5102363;28;9782;-71
2022/04/24 11:04:06;;;;;;;;;3.00;3.00;;;;;20.30;41.66;100657.44;5091499;28;9623;-71
2022/04/24 11:06:31;;;;;;;;;4.75;4.75;;;;;20.33;41.92;100660.91;5091011;28;9657;-71
2022/04/24 11:09:06;;;;;;;;;4.00;4.00;;;;;20.35;41.91;100655.59;5091117;28;9686;-71
2022/04/24 11:11:33;;;;;;;;;5.25;4.25;;;;;20.36;41.54;100655.53;5091706;28;8768;-71
2022/04/24 11:14:02;;;;;;;;;4.50;4.50;;;;;20.38;41.77;100648.44;5104388;28;9814;-72
2022/04/24 11:16:27;;;;;;;;;3.50;3.50;;;;;20.39;41.97;100652.84;5112116;28;9763;-71
2022/04/24 11:18:53;;;;;;;;;5.00;4.00;;;;;20.38;41.84;100660.81;5111076;28;9876;-70
2022/04/24 11:21:19;;;;;;;;;5.50;4.50;;;;;20.38;41.98;100647.56;5111296;28;8792;-71
2022/04/24 11:23:45;;;;;;;;;4.50;4.50;;;;;20.39;41.92;100647.53;5111501;28;9555;-71
2022/04/24 11:26:12;;;;;;;;;4.00;4.00;;;;;20.40;41.81;100649.25;5112102;28;8773;-71
2022/04/24 11:28:42;;;;;;;;;4.00;4.00;;;;;20.39;41.81;100658.16;5110742;28;9794;-71
2022/04/24 11:31:18;;;;;;;;;4.50;4.50;;;;;20.41;41.98;100655.44;5111307;28;9701;-71